sensor_id;sensor_type;location;lat;lon;timestamp;P1;durP1;ratioP1;P2;durP2;ratioP2
30307;SDS011;17114;52.314;8.910;2022-12-07T00:03:44;62.78;;;31.75;;
30307;SDS011;17114;52.314;8.910;2022-12-07T00:06:13;59.83;;;30.17;;
30307;SDS011;17114;52.314;8.910;2022-12-07T00:08:41;62.42;;;32.72;;
30307;SDS011;17114;52.314;8.910;2022-12-07T00:11:09;62.78;;;31.52;;
30307;SDS011;17114;52.314;8.910;2022-12-07T00:13:36;62.58;;;31.75;;
30307;SDS011;17114;52.314;8.910;2022-12-07T00:16:05;60.40;;;32.55;;
30307;SDS011;17114;52.314;8.910;2022-12-07T00:18:35;64.78;;;33.03;;
30307;SDS011;17114;52.314;8.910;2022-12-07T00:21:04;64.78;;;33.20;;
30307;SDS011;17114;52.314;8.910;2022-12-07T00:23:36;59.10;;;32.13;;
30307;SDS011;17114;52.314;8.910;2022-12-07T00:26:07;61.78;;;32.47;;
30307;SDS011;17114;52.314;8.910;2022-12-07T00:28:38;64.32;;;32.08;;
30307;SDS011;17114;52.314;8.910;2022-12-07T00:31:15;61.17;;;32.78;;
30307;SDS011;17114;52.314;8.910;2022-12-07T00:33:42;64.70;;;32.03;;
30307;SDS011;17114;52.314;8.910;2022-12-07T00:36:12;61.70;;;32.47;;
30307;SDS011;17114;52.314;8.910;2022-12-07T00:38:40;58.97;;;31.55;;
30307;SDS011;17114;52.314;8.910;2022-12-07T00:41:09;64.18;;;32.47;;
30307;SDS011;17114;52.314;8.910;2022-12-07T00:43:41;50.37;;;25.47;;
30307;SDS011;17114;52.314;8.910;2022-12-07T00:46:10;57.08;;;30.88;;
30307;SDS011;17114;52.314;8.910;2022-12-07T00:48:38;63.55;;;32.60;;
30307;SDS011;17114;52.314;8.910;2022-12-07T00:51:05;56.67;;;30.83;;
30307;SDS011;17114;52.314;8.910;2022-12-07T00:53:36;58.55;;;31.50;;
30307;SDS011;17114;52.314;8.910;2022-12-07T00:56:08;58.55;;;31.52;;
30307;SDS011;17114;52.314;8.910;2022-12-07T00:58:37;55.00;;;29.25;;
30307;SDS011;17114;52.314;8.910;2022-12-07T01:01:05;56.58;;;30.83;;
30307;SDS011;17114;52.314;8.910;2022-12-07T01:03:33;57.05;;;29.83;;
30307;SDS011;17114;52.314;8.910;2022-12-07T01:06:00;52.33;;;29.27;;
30307;SDS011;17114;52.314;8.910;2022-12-07T01:08:28;55.88;;;29.83;;
30307;SDS011;17114;52.314;8.910;2022-12-07T01:10:59;53.88;;;28.20;;
30307;SDS011;17114;52.314;8.910;2022-12-07T01:13:26;52.42;;;29.27;;
30307;SDS011;17114;52.314;8.910;2022-12-07T01:15:56;56.47;;;30.27;;
30307;SDS011;17114;52.314;8.910;2022-12-07T01:18:29;53.20;;;28.83;;
30307;SDS011;17114;52.314;8.910;2022-12-07T01:21:01;64.43;;;28.17;;
30307;SDS011;17114;52.314;8.910;2022-12-07T01:23:31;54.50;;;28.70;;
30307;SDS011;17114;52.314;8.910;2022-12-07T01:25:59;54.90;;;29.20;;
30307;SDS011;17114;52.314;8.910;2022-12-07T01:28:27;52.28;;;27.20;;
30307;SDS011;17114;52.314;8.910;2022-12-07T01:31:07;50.10;;;28.25;;
30307;SDS011;17114;52.314;8.910;2022-12-07T01:33:41;62.30;;;29.90;;
30307;SDS011;17114;52.314;8.910;2022-12-07T01:36:14;57.97;;;30.00;;
30307;SDS011;17114;52.314;8.910;2022-12-07T01:38:42;52.50;;;27.85;;
30307;SDS011;17114;52.314;8.910;2022-12-07T01:41:10;53.05;;;27.30;;
30307;SDS011;17114;52.314;8.910;2022-12-07T01:44:06;51.70;;;27.67;;
30307;SDS011;17114;52.314;8.910;2022-12-07T01:46:45;55.95;;;27.02;;
30307;SDS011;17114;52.314;8.910;2022-12-07T01:49:24;53.05;;;27.67;;
30307;SDS011;17114;52.314;8.910;2022-12-07T01:52:08;51.22;;;26.20;;
30307;SDS011;17114;52.314;8.910;2022-12-07T01:54:46;48.47;;;25.23;;
30307;SDS011;17114;52.314;8.910;2022-12-07T01:57:16;46.53;;;25.02;;
30307;SDS011;17114;52.314;8.910;2022-12-07T01:59:46;45.65;;;23.33;;
30307;SDS011;17114;52.314;8.910;2022-12-07T02:02:28;53.08;;;26.73;;
30307;SDS011;17114;52.314;8.910;2022-12-07T02:05:02;42.72;;;23.80;;
30307;SDS011;17114;52.314;8.910;2022-12-07T02:07:32;48.63;;;24.38;;
30307;SDS011;17114;52.314;8.910;2022-12-07T02:10:12;46.83;;;23.48;;
30307;SDS011;17114;52.314;8.910;2022-12-07T02:12:39;41.53;;;23.45;;
30307;SDS011;17114;52.314;8.910;2022-12-07T02:15:06;48.25;;;23.30;;
30307;SDS011;17114;52.314;8.910;2022-12-07T02:17:40;49.20;;;23.50;;
30307;SDS011;17114;52.314;8.910;2022-12-07T02:20:28;44.17;;;23.63;;
30307;SDS011;17114;52.314;8.910;2022-12-07T02:31:36;53.17;;;23.55;;
30307;SDS011;17114;52.314;8.910;2022-12-07T02:34:18;45.38;;;22.20;;
30307;SDS011;17114;52.314;8.910;2022-12-07T02:37:00;43.63;;;21.33;;
30307;SDS011;17114;52.314;8.910;2022-12-07T02:39:37;46.45;;;21.90;;
30307;SDS011;17114;52.314;8.910;2022-12-07T02:42:13;46.42;;;21.45;;
30307;SDS011;17114;52.314;8.910;2022-12-07T02:44:45;44.78;;;20.25;;
30307;SDS011;17114;52.314;8.910;2022-12-07T02:47:14;43.42;;;19.63;;
30307;SDS011;17114;52.314;8.910;2022-12-07T02:49:43;46.13;;;19.67;;
30307;SDS011;17114;52.314;8.910;2022-12-07T02:52:11;37.35;;;17.70;;
30307;SDS011;17114;52.314;8.910;2022-12-07T02:54:37;44.17;;;19.23;;
30307;SDS011;17114;52.314;8.910;2022-12-07T03:00:11;39.50;;;17.25;;
30307;SDS011;17114;52.314;8.910;2022-12-07T03:08:24;33.63;;;16.00;;
30307;SDS011;17114;52.314;8.910;2022-12-07T03:11:06;39.53;;;17.42;;
30307;SDS011;17114;52.314;8.910;2022-12-07T03:16:21;42.50;;;17.30;;
30307;SDS011;17114;52.314;8.910;2022-12-07T03:19:00;30.45;;;14.88;;
30307;SDS011;17114;52.314;8.910;2022-12-07T03:21:39;37.55;;;16.02;;
30307;SDS011;17114;52.314;8.910;2022-12-07T03:24:14;40.58;;;15.65;;
30307;SDS011;17114;52.314;8.910;2022-12-07T03:26:45;40.53;;;13.50;;
30307;SDS011;17114;52.314;8.910;2022-12-07T03:29:25;35.72;;;15.88;;
30307;SDS011;17114;52.314;8.910;2022-12-07T03:31:58;35.67;;;16.00;;
30307;SDS011;17114;52.314;8.910;2022-12-07T03:34:31;36.67;;;15.68;;
30307;SDS011;17114;52.314;8.910;2022-12-07T03:37:04;37.53;;;15.18;;
30307;SDS011;17114;52.314;8.910;2022-12-07T03:39:39;34.75;;;14.82;;
30307;SDS011;17114;52.314;8.910;2022-12-07T03:42:12;35.13;;;15.70;;
30307;SDS011;17114;52.314;8.910;2022-12-07T03:44:39;34.97;;;14.63;;
30307;SDS011;17114;52.314;8.910;2022-12-07T03:47:12;36.20;;;16.05;;
30307;SDS011;17114;52.314;8.910;2022-12-07T03:52:31;30.38;;;14.27;;
30307;SDS011;17114;52.314;8.910;2022-12-07T03:55:16;31.92;;;14.70;;
30307;SDS011;17114;52.314;8.910;2022-12-07T03:57:48;41.08;;;15.48;;
30307;SDS011;17114;52.314;8.910;2022-12-07T04:00:19;34.28;;;14.63;;
30307;SDS011;17114;52.314;8.910;2022-12-07T04:02:46;34.00;;;14.45;;
30307;SDS011;17114;52.314;8.910;2022-12-07T04:05:13;33.00;;;13.38;;
30307;SDS011;17114;52.314;8.910;2022-12-07T04:07:40;31.90;;;12.55;;
30307;SDS011;17114;52.314;8.910;2022-12-07T04:10:07;29.77;;;13.52;;
30307;SDS011;17114;52.314;8.910;2022-12-07T04:12:35;28.27;;;13.65;;
30307;SDS011;17114;52.314;8.910;2022-12-07T04:15:02;35.70;;;13.38;;
30307;SDS011;17114;52.314;8.910;2022-12-07T04:17:29;25.77;;;12.45;;
30307;SDS011;17114;52.314;8.910;2022-12-07T04:19:56;23.10;;;12.32;;
30307;SDS011;17114;52.314;8.910;2022-12-07T04:22:23;31.98;;;13.05;;
30307;SDS011;17114;52.314;8.910;2022-12-07T04:24:50;25.30;;;12.35;;
30307;SDS011;17114;52.314;8.910;2022-12-07T04:27:16;29.80;;;11.25;;
30307;SDS011;17114;52.314;8.910;2022-12-07T04:29:43;24.27;;;10.90;;
30307;SDS011;17114;52.314;8.910;2022-12-07T04:32:10;21.70;;;11.40;;
30307;SDS011;17114;52.314;8.910;2022-12-07T04:34:37;26.70;;;10.90;;
30307;SDS011;17114;52.314;8.910;2022-12-07T04:37:03;22.63;;;9.63;;
30307;SDS011;17114;52.314;8.910;2022-12-07T04:39:31;22.35;;;9.35;;
30307;SDS011;17114;52.314;8.910;2022-12-07T04:41:59;23.70;;;10.00;;
30307;SDS011;17114;52.314;8.910;2022-12-07T04:44:27;17.60;;;9.70;;
30307;SDS011;17114;52.314;8.910;2022-12-07T04:46:55;23.58;;;8.75;;
30307;SDS011;17114;52.314;8.910;2022-12-07T04:49:23;16.77;;;8.15;;
30307;SDS011;17114;52.314;8.910;2022-12-07T04:51:50;21.33;;;8.65;;
30307;SDS011;17114;52.314;8.910;2022-12-07T04:54:18;20.13;;;8.02;;
30307;SDS011;17114;52.314;8.910;2022-12-07T04:56:45;18.05;;;7.43;;
30307;SDS011;17114;52.314;8.910;2022-12-07T04:59:12;13.30;;;6.95;;
30307;SDS011;17114;52.314;8.910;2022-12-07T05:01:40;18.20;;;7.40;;
30307;SDS011;17114;52.314;8.910;2022-12-07T05:04:07;16.20;;;6.60;;
30307;SDS011;17114;52.314;8.910;2022-12-07T05:06:34;13.82;;;6.07;;
30307;SDS011;17114;52.314;8.910;2022-12-07T05:09:02;15.00;;;5.95;;
30307;SDS011;17114;52.314;8.910;2022-12-07T05:11:29;18.30;;;6.38;;
30307;SDS011;17114;52.314;8.910;2022-12-07T05:16:38;19.02;;;6.20;;
30307;SDS011;17114;52.314;8.910;2022-12-07T05:19:05;17.83;;;6.25;;
30307;SDS011;17114;52.314;8.910;2022-12-07T05:21:33;13.35;;;6.00;;
30307;SDS011;17114;52.314;8.910;2022-12-07T05:24:00;11.50;;;5.57;;
30307;SDS011;17114;52.314;8.910;2022-12-07T05:26:27;22.65;;;5.72;;
30307;SDS011;17114;52.314;8.910;2022-12-07T05:28:54;20.83;;;6.20;;
30307;SDS011;17114;52.314;8.910;2022-12-07T05:31:22;14.40;;;5.65;;
30307;SDS011;17114;52.314;8.910;2022-12-07T05:33:51;19.65;;;6.07;;
30307;SDS011;17114;52.314;8.910;2022-12-07T05:36:18;11.45;;;5.28;;
30307;SDS011;17114;52.314;8.910;2022-12-07T05:38:45;15.40;;;5.88;;
30307;SDS011;17114;52.314;8.910;2022-12-07T05:41:14;16.17;;;5.53;;
30307;SDS011;17114;52.314;8.910;2022-12-07T05:44:01;13.88;;;5.15;;
30307;SDS011;17114;52.314;8.910;2022-12-07T05:46:28;15.30;;;5.10;;
30307;SDS011;17114;52.314;8.910;2022-12-07T05:48:55;11.75;;;5.40;;
30307;SDS011;17114;52.314;8.910;2022-12-07T05:51:22;14.77;;;5.32;;
30307;SDS011;17114;52.314;8.910;2022-12-07T05:53:48;17.42;;;4.97;;
30307;SDS011;17114;52.314;8.910;2022-12-07T05:56:15;14.80;;;4.85;;
30307;SDS011;17114;52.314;8.910;2022-12-07T05:58:42;12.85;;;5.05;;
30307;SDS011;17114;52.314;8.910;2022-12-07T06:01:28;12.18;;;4.70;;
30307;SDS011;17114;52.314;8.910;2022-12-07T06:03:55;9.23;;;4.60;;
30307;SDS011;17114;52.314;8.910;2022-12-07T06:06:21;12.88;;;4.72;;
30307;SDS011;17114;52.314;8.910;2022-12-07T06:08:48;14.07;;;5.57;;
30307;SDS011;17114;52.314;8.910;2022-12-07T06:11:15;15.63;;;5.10;;
30307;SDS011;17114;52.314;8.910;2022-12-07T06:16:27;11.80;;;5.00;;
30307;SDS011;17114;52.314;8.910;2022-12-07T06:18:54;13.32;;;4.80;;
30307;SDS011;17114;52.314;8.910;2022-12-07T06:21:21;13.98;;;5.45;;
30307;SDS011;17114;52.314;8.910;2022-12-07T06:23:48;14.20;;;5.15;;
30307;SDS011;17114;52.314;8.910;2022-12-07T06:26:15;13.30;;;5.32;;
30307;SDS011;17114;52.314;8.910;2022-12-07T06:28:42;13.95;;;5.10;;
30307;SDS011;17114;52.314;8.910;2022-12-07T06:31:09;14.13;;;5.30;;
30307;SDS011;17114;52.314;8.910;2022-12-07T06:33:39;14.15;;;4.90;;
30307;SDS011;17114;52.314;8.910;2022-12-07T06:36:07;16.73;;;5.20;;
30307;SDS011;17114;52.314;8.910;2022-12-07T06:38:34;12.93;;;4.60;;
30307;SDS011;17114;52.314;8.910;2022-12-07T06:41:01;12.68;;;4.50;;
30307;SDS011;17114;52.314;8.910;2022-12-07T06:43:28;18.67;;;4.80;;
30307;SDS011;17114;52.314;8.910;2022-12-07T06:45:55;13.35;;;4.70;;
30307;SDS011;17114;52.314;8.910;2022-12-07T06:48:22;13.23;;;5.00;;
30307;SDS011;17114;52.314;8.910;2022-12-07T06:50:49;18.88;;;4.65;;
30307;SDS011;17114;52.314;8.910;2022-12-07T06:53:20;11.45;;;4.05;;
30307;SDS011;17114;52.314;8.910;2022-12-07T06:55:48;12.15;;;4.05;;
30307;SDS011;17114;52.314;8.910;2022-12-07T06:58:14;9.50;;;3.55;;
30307;SDS011;17114;52.314;8.910;2022-12-07T07:00:42;11.23;;;3.55;;
30307;SDS011;17114;52.314;8.910;2022-12-07T07:03:09;17.42;;;4.53;;
30307;SDS011;17114;52.314;8.910;2022-12-07T07:05:36;13.63;;;4.25;;
30307;SDS011;17114;52.314;8.910;2022-12-07T07:08:03;16.90;;;3.97;;
30307;SDS011;17114;52.314;8.910;2022-12-07T07:10:47;11.85;;;4.45;;
30307;SDS011;17114;52.314;8.910;2022-12-07T07:13:14;12.32;;;4.57;;
30307;SDS011;17114;52.314;8.910;2022-12-07T07:15:41;12.50;;;4.15;;
30307;SDS011;17114;52.314;8.910;2022-12-07T07:18:08;11.45;;;3.70;;
30307;SDS011;17114;52.314;8.910;2022-12-07T07:20:36;13.88;;;3.97;;
30307;SDS011;17114;52.314;8.910;2022-12-07T07:23:03;14.18;;;4.38;;
30307;SDS011;17114;52.314;8.910;2022-12-07T07:25:31;17.95;;;4.57;;
30307;SDS011;17114;52.314;8.910;2022-12-07T07:27:58;12.05;;;4.38;;
30307;SDS011;17114;52.314;8.910;2022-12-07T07:30:25;16.45;;;4.43;;
30307;SDS011;17114;52.314;8.910;2022-12-07T07:32:56;17.15;;;4.10;;
30307;SDS011;17114;52.314;8.910;2022-12-07T07:35:27;10.70;;;4.38;;
30307;SDS011;17114;52.314;8.910;2022-12-07T07:37:55;15.48;;;4.50;;
30307;SDS011;17114;52.314;8.910;2022-12-07T07:40:22;17.55;;;4.32;;
30307;SDS011;17114;52.314;8.910;2022-12-07T07:42:49;16.95;;;4.75;;
30307;SDS011;17114;52.314;8.910;2022-12-07T07:45:18;11.82;;;4.22;;
30307;SDS011;17114;52.314;8.910;2022-12-07T07:47:45;13.65;;;4.10;;
30307;SDS011;17114;52.314;8.910;2022-12-07T07:50:13;15.13;;;3.92;;
30307;SDS011;17114;52.314;8.910;2022-12-07T07:52:40;27.10;;;4.32;;
30307;SDS011;17114;52.314;8.910;2022-12-07T07:55:07;14.43;;;3.78;;
30307;SDS011;17114;52.314;8.910;2022-12-07T07:57:35;9.98;;;3.85;;
30307;SDS011;17114;52.314;8.910;2022-12-07T08:00:10;14.82;;;3.63;;
30307;SDS011;17114;52.314;8.910;2022-12-07T08:02:39;8.65;;;3.53;;
30307;SDS011;17114;52.314;8.910;2022-12-07T08:05:06;7.90;;;2.83;;
30307;SDS011;17114;52.314;8.910;2022-12-07T08:07:34;9.52;;;3.55;;
30307;SDS011;17114;52.314;8.910;2022-12-07T08:10:06;12.80;;;4.15;;
30307;SDS011;17114;52.314;8.910;2022-12-07T08:12:37;12.80;;;4.25;;
30307;SDS011;17114;52.314;8.910;2022-12-07T08:15:25;16.10;;;4.13;;
30307;SDS011;17114;52.314;8.910;2022-12-07T08:17:53;10.57;;;3.90;;
30307;SDS011;17114;52.314;8.910;2022-12-07T08:20:20;12.18;;;4.07;;
30307;SDS011;17114;52.314;8.910;2022-12-07T08:22:47;9.30;;;3.63;;
30307;SDS011;17114;52.314;8.910;2022-12-07T08:25:14;15.48;;;4.25;;
30307;SDS011;17114;52.314;8.910;2022-12-07T08:27:41;15.27;;;3.28;;
30307;SDS011;17114;52.314;8.910;2022-12-07T08:30:08;9.38;;;3.40;;
30307;SDS011;17114;52.314;8.910;2022-12-07T08:32:35;10.48;;;3.53;;
30307;SDS011;17114;52.314;8.910;2022-12-07T08:35:02;11.52;;;3.72;;
30307;SDS011;17114;52.314;8.910;2022-12-07T08:37:28;11.27;;;3.53;;
30307;SDS011;17114;52.314;8.910;2022-12-07T08:39:55;10.32;;;3.50;;
30307;SDS011;17114;52.314;8.910;2022-12-07T08:42:22;8.52;;;3.35;;
30307;SDS011;17114;52.314;8.910;2022-12-07T08:44:53;12.85;;;4.03;;
30307;SDS011;17114;52.314;8.910;2022-12-07T08:47:20;13.65;;;4.20;;
30307;SDS011;17114;52.314;8.910;2022-12-07T08:49:47;17.35;;;4.07;;
30307;SDS011;17114;52.314;8.910;2022-12-07T08:52:17;13.20;;;4.30;;
30307;SDS011;17114;52.314;8.910;2022-12-07T08:54:44;19.27;;;4.38;;
30307;SDS011;17114;52.314;8.910;2022-12-07T08:57:11;13.75;;;4.70;;
30307;SDS011;17114;52.314;8.910;2022-12-07T08:59:38;15.35;;;3.90;;
30307;SDS011;17114;52.314;8.910;2022-12-07T09:02:05;13.20;;;4.38;;
30307;SDS011;17114;52.314;8.910;2022-12-07T09:04:33;11.05;;;4.22;;
30307;SDS011;17114;52.314;8.910;2022-12-07T09:07:00;10.52;;;4.13;;
30307;SDS011;17114;52.314;8.910;2022-12-07T09:09:27;13.05;;;3.88;;
30307;SDS011;17114;52.314;8.910;2022-12-07T09:11:54;19.10;;;3.65;;
30307;SDS011;17114;52.314;8.910;2022-12-07T09:14:21;11.43;;;3.67;;
30307;SDS011;17114;52.314;8.910;2022-12-07T09:16:48;15.90;;;3.85;;
30307;SDS011;17114;52.314;8.910;2022-12-07T09:19:15;11.50;;;3.50;;
30307;SDS011;17114;52.314;8.910;2022-12-07T09:21:42;17.58;;;3.75;;
30307;SDS011;17114;52.314;8.910;2022-12-07T09:24:09;12.48;;;3.63;;
30307;SDS011;17114;52.314;8.910;2022-12-07T09:26:37;15.52;;;3.35;;
30307;SDS011;17114;52.314;8.910;2022-12-07T09:29:06;17.05;;;4.38;;
30307;SDS011;17114;52.314;8.910;2022-12-07T09:31:35;16.33;;;3.90;;
30307;SDS011;17114;52.314;8.910;2022-12-07T09:34:03;15.15;;;3.70;;
30307;SDS011;17114;52.314;8.910;2022-12-07T09:36:31;14.48;;;4.03;;
30307;SDS011;17114;52.314;8.910;2022-12-07T09:38:59;12.18;;;3.45;;
30307;SDS011;17114;52.314;8.910;2022-12-07T09:41:27;13.98;;;3.65;;
30307;SDS011;17114;52.314;8.910;2022-12-07T09:43:58;12.68;;;3.90;;
30307;SDS011;17114;52.314;8.910;2022-12-07T09:46:36;13.85;;;4.30;;
30307;SDS011;17114;52.314;8.910;2022-12-07T09:49:08;11.10;;;3.38;;
30307;SDS011;17114;52.314;8.910;2022-12-07T09:51:38;12.15;;;3.20;;
30307;SDS011;17114;52.314;8.910;2022-12-07T09:54:05;8.10;;;3.05;;
30307;SDS011;17114;52.314;8.910;2022-12-07T09:56:34;10.88;;;3.03;;
30307;SDS011;17114;52.314;8.910;2022-12-07T09:59:01;9.93;;;4.00;;
30307;SDS011;17114;52.314;8.910;2022-12-07T10:01:30;10.55;;;3.47;;
30307;SDS011;17114;52.314;8.910;2022-12-07T10:04:08;9.75;;;3.10;;
30307;SDS011;17114;52.314;8.910;2022-12-07T10:06:41;11.30;;;3.13;;
30307;SDS011;17114;52.314;8.910;2022-12-07T10:09:09;9.48;;;2.90;;
30307;SDS011;17114;52.314;8.910;2022-12-07T10:14:33;8.43;;;3.05;;
30307;SDS011;17114;52.314;8.910;2022-12-07T10:17:37;9.65;;;2.85;;
30307;SDS011;17114;52.314;8.910;2022-12-07T10:20:23;10.05;;;2.78;;
30307;SDS011;17114;52.314;8.910;2022-12-07T10:25:32;10.35;;;3.45;;
30307;SDS011;17114;52.314;8.910;2022-12-07T10:31:20;12.20;;;4.03;;
30307;SDS011;17114;52.314;8.910;2022-12-07T10:38:49;11.55;;;3.50;;
30307;SDS011;17114;52.314;8.910;2022-12-07T10:41:18;8.05;;;2.97;;
30307;SDS011;17114;52.314;8.910;2022-12-07T10:43:47;11.95;;;3.00;;
30307;SDS011;17114;52.314;8.910;2022-12-07T10:46:32;10.23;;;2.60;;
30307;SDS011;17114;52.314;8.910;2022-12-07T10:49:29;8.70;;;2.67;;
30307;SDS011;17114;52.314;8.910;2022-12-07T10:52:20;15.27;;;3.28;;
30307;SDS011;17114;52.314;8.910;2022-12-07T11:00:29;14.48;;;3.17;;
30307;SDS011;17114;52.314;8.910;2022-12-07T11:13:55;11.45;;;3.20;;
30307;SDS011;17114;52.314;8.910;2022-12-07T11:19:25;14.00;;;3.53;;
30307;SDS011;17114;52.314;8.910;2022-12-07T11:22:03;9.88;;;2.80;;
30307;SDS011;17114;52.314;8.910;2022-12-07T11:24:44;10.35;;;2.85;;
30307;SDS011;17114;52.314;8.910;2022-12-07T11:33:45;12.35;;;3.85;;
30307;SDS011;17114;52.314;8.910;2022-12-07T11:36:45;15.55;;;3.00;;
30307;SDS011;17114;52.314;8.910;2022-12-07T11:41:48;10.23;;;3.30;;
30307;SDS011;17114;52.314;8.910;2022-12-07T11:47:07;13.20;;;2.95;;
30307;SDS011;17114;52.314;8.910;2022-12-07T11:49:57;17.30;;;2.90;;
30307;SDS011;17114;52.314;8.910;2022-12-07T11:55:17;12.07;;;2.80;;
30307;SDS011;17114;52.314;8.910;2022-12-07T11:57:56;12.02;;;2.65;;
30307;SDS011;17114;52.314;8.910;2022-12-07T12:00:30;11.90;;;2.60;;
30307;SDS011;17114;52.314;8.910;2022-12-07T12:03:03;15.23;;;2.90;;
30307;SDS011;17114;52.314;8.910;2022-12-07T12:05:37;18.00;;;3.83;;
30307;SDS011;17114;52.314;8.910;2022-12-07T12:08:18;10.15;;;3.22;;
30307;SDS011;17114;52.314;8.910;2022-12-07T12:11:31;13.15;;;2.63;;
30307;SDS011;17114;52.314;8.910;2022-12-07T12:14:25;8.57;;;2.20;;
30307;SDS011;17114;52.314;8.910;2022-12-07T12:22:48;7.80;;;2.35;;
30307;SDS011;17114;52.314;8.910;2022-12-07T12:26:13;7.32;;;2.10;;
30307;SDS011;17114;52.314;8.910;2022-12-07T12:28:23;13.27;;;2.78;;
30307;SDS011;17114;52.314;8.910;2022-12-07T12:31:13;8.77;;;2.58;;
30307;SDS011;17114;52.314;8.910;2022-12-07T12:33:44;13.88;;;2.00;;
30307;SDS011;17114;52.314;8.910;2022-12-07T12:36:21;10.38;;;2.10;;
30307;SDS011;17114;52.314;8.910;2022-12-07T12:54:27;9.45;;;2.20;;
30307;SDS011;17114;52.314;8.910;2022-12-07T13:02:27;10.57;;;2.13;;
30307;SDS011;17114;52.314;8.910;2022-12-07T13:05:02;4.40;;;1.42;;
30307;SDS011;17114;52.314;8.910;2022-12-07T13:07:50;10.65;;;1.85;;
30307;SDS011;17114;52.314;8.910;2022-12-07T13:13:03;10.10;;;2.30;;
30307;SDS011;17114;52.314;8.910;2022-12-07T13:23:31;7.07;;;1.92;;
30307;SDS011;17114;52.314;8.910;2022-12-07T13:31:38;12.48;;;2.92;;
30307;SDS011;17114;52.314;8.910;2022-12-07T13:40:17;9.07;;;2.83;;
30307;SDS011;17114;52.314;8.910;2022-12-07T13:42:45;10.88;;;2.85;;
30307;SDS011;17114;52.314;8.910;2022-12-07T13:45:23;10.82;;;3.10;;
30307;SDS011;17114;52.314;8.910;2022-12-07T13:48:32;10.73;;;2.97;;
30307;SDS011;17114;52.314;8.910;2022-12-07T13:51:19;7.78;;;2.38;;
30307;SDS011;17114;52.314;8.910;2022-12-07T13:54:01;15.07;;;2.80;;
30307;SDS011;17114;52.314;8.910;2022-12-07T13:56:36;10.65;;;2.60;;
30307;SDS011;17114;52.314;8.910;2022-12-07T13:59:04;7.70;;;2.42;;
30307;SDS011;17114;52.314;8.910;2022-12-07T14:06:51;10.35;;;2.75;;
30307;SDS011;17114;52.314;8.910;2022-12-07T14:09:22;10.73;;;3.45;;
30307;SDS011;17114;52.314;8.910;2022-12-07T14:11:51;5.93;;;2.70;;
30307;SDS011;17114;52.314;8.910;2022-12-07T14:14:22;6.85;;;2.58;;
30307;SDS011;17114;52.314;8.910;2022-12-07T14:17:08;8.90;;;2.90;;
30307;SDS011;17114;52.314;8.910;2022-12-07T14:19:45;11.57;;;2.92;;
30307;SDS011;17114;52.314;8.910;2022-12-07T14:22:22;14.25;;;3.35;;
30307;SDS011;17114;52.314;8.910;2022-12-07T14:25:00;13.57;;;3.58;;
30307;SDS011;17114;52.314;8.910;2022-12-07T14:27:46;9.95;;;3.75;;
30307;SDS011;17114;52.314;8.910;2022-12-07T14:30:27;12.82;;;3.90;;
30307;SDS011;17114;52.314;8.910;2022-12-07T14:33:00;13.55;;;3.92;;
30307;SDS011;17114;52.314;8.910;2022-12-07T14:35:29;11.18;;;3.17;;
30307;SDS011;17114;52.314;8.910;2022-12-07T14:37:57;12.13;;;3.47;;
30307;SDS011;17114;52.314;8.910;2022-12-07T14:40:26;10.93;;;3.72;;
30307;SDS011;17114;52.314;8.910;2022-12-07T14:42:55;9.80;;;4.13;;
30307;SDS011;17114;52.314;8.910;2022-12-07T14:45:27;13.90;;;4.47;;
30307;SDS011;17114;52.314;8.910;2022-12-07T14:47:55;12.25;;;4.32;;
30307;SDS011;17114;52.314;8.910;2022-12-07T14:50:43;11.70;;;4.10;;
30307;SDS011;17114;52.314;8.910;2022-12-07T14:53:36;12.10;;;4.20;;
30307;SDS011;17114;52.314;8.910;2022-12-07T14:56:07;13.82;;;4.28;;
30307;SDS011;17114;52.314;8.910;2022-12-07T14:58:34;13.98;;;4.13;;
30307;SDS011;17114;52.314;8.910;2022-12-07T15:01:01;12.68;;;3.97;;
30307;SDS011;17114;52.314;8.910;2022-12-07T15:03:30;14.80;;;4.60;;
30307;SDS011;17114;52.314;8.910;2022-12-07T15:05:57;14.77;;;4.22;;
30307;SDS011;17114;52.314;8.910;2022-12-07T15:08:24;12.43;;;4.28;;
30307;SDS011;17114;52.314;8.910;2022-12-07T15:10:52;10.57;;;4.00;;
30307;SDS011;17114;52.314;8.910;2022-12-07T15:13:19;13.15;;;4.07;;
30307;SDS011;17114;52.314;8.910;2022-12-07T15:16:04;14.75;;;4.28;;
30307;SDS011;17114;52.314;8.910;2022-12-07T15:18:34;18.48;;;4.50;;
30307;SDS011;17114;52.314;8.910;2022-12-07T15:21:01;14.50;;;4.50;;
30307;SDS011;17114;52.314;8.910;2022-12-07T15:23:28;19.63;;;4.80;;
30307;SDS011;17114;52.314;8.910;2022-12-07T15:25:55;10.05;;;3.85;;
30307;SDS011;17114;52.314;8.910;2022-12-07T15:28:22;11.65;;;3.55;;
30307;SDS011;17114;52.314;8.910;2022-12-07T15:30:49;12.05;;;4.65;;
30307;SDS011;17114;52.314;8.910;2022-12-07T15:33:17;13.35;;;4.28;;
30307;SDS011;17114;52.314;8.910;2022-12-07T15:35:45;13.88;;;4.25;;
30307;SDS011;17114;52.314;8.910;2022-12-07T15:38:12;14.45;;;4.05;;
30307;SDS011;17114;52.314;8.910;2022-12-07T15:40:39;13.70;;;4.40;;
30307;SDS011;17114;52.314;8.910;2022-12-07T15:43:08;9.20;;;3.80;;
30307;SDS011;17114;52.314;8.910;2022-12-07T15:45:55;10.63;;;3.67;;
30307;SDS011;17114;52.314;8.910;2022-12-07T15:48:22;11.02;;;3.75;;
30307;SDS011;17114;52.314;8.910;2022-12-07T15:51:01;11.43;;;4.28;;
30307;SDS011;17114;52.314;8.910;2022-12-07T15:55:56;12.55;;;4.07;;
30307;SDS011;17114;52.314;8.910;2022-12-07T15:58:23;17.13;;;4.22;;
30307;SDS011;17114;52.314;8.910;2022-12-07T16:00:50;12.60;;;4.40;;
30307;SDS011;17114;52.314;8.910;2022-12-07T16:03:17;13.50;;;4.60;;
30307;SDS011;17114;52.314;8.910;2022-12-07T16:05:48;14.55;;;4.25;;
30307;SDS011;17114;52.314;8.910;2022-12-07T16:08:16;12.30;;;4.40;;
30307;SDS011;17114;52.314;8.910;2022-12-07T16:10:43;16.70;;;5.15;;
30307;SDS011;17114;52.314;8.910;2022-12-07T16:13:11;12.93;;;4.47;;
30307;SDS011;17114;52.314;8.910;2022-12-07T16:15:42;13.20;;;4.07;;
30307;SDS011;17114;52.314;8.910;2022-12-07T16:18:12;18.73;;;5.43;;
30307;SDS011;17114;52.314;8.910;2022-12-07T16:20:39;16.45;;;4.22;;
30307;SDS011;17114;52.314;8.910;2022-12-07T16:23:06;16.27;;;3.60;;
30307;SDS011;17114;52.314;8.910;2022-12-07T16:25:33;9.55;;;4.55;;
30307;SDS011;17114;52.314;8.910;2022-12-07T16:28:00;10.60;;;3.78;;
30307;SDS011;17114;52.314;8.910;2022-12-07T16:30:27;6.05;;;2.60;;
30307;SDS011;17114;52.314;8.910;2022-12-07T16:32:54;7.32;;;2.35;;
30307;SDS011;17114;52.314;8.910;2022-12-07T16:35:27;7.97;;;3.13;;
30307;SDS011;17114;52.314;8.910;2022-12-07T16:37:54;6.72;;;3.53;;
30307;SDS011;17114;52.314;8.910;2022-12-07T16:40:21;11.43;;;3.58;;
30307;SDS011;17114;52.314;8.910;2022-12-07T16:42:48;8.55;;;3.30;;
30307;SDS011;17114;52.314;8.910;2022-12-07T16:45:15;12.52;;;3.35;;
30307;SDS011;17114;52.314;8.910;2022-12-07T16:47:46;10.55;;;3.38;;
30307;SDS011;17114;52.314;8.910;2022-12-07T16:50:13;14.02;;;3.40;;
30307;SDS011;17114;52.314;8.910;2022-12-07T16:52:40;12.50;;;3.03;;
30307;SDS011;17114;52.314;8.910;2022-12-07T16:55:07;9.90;;;3.95;;
30307;SDS011;17114;52.314;8.910;2022-12-07T16:57:34;12.95;;;4.82;;
30307;SDS011;17114;52.314;8.910;2022-12-07T17:00:02;9.23;;;3.97;;
30307;SDS011;17114;52.314;8.910;2022-12-07T17:02:30;7.95;;;3.85;;
30307;SDS011;17114;52.314;8.910;2022-12-07T17:04:58;9.68;;;3.90;;
30307;SDS011;17114;52.314;8.910;2022-12-07T17:07:25;12.32;;;4.30;;
30307;SDS011;17114;52.314;8.910;2022-12-07T17:09:52;11.48;;;4.63;;
30307;SDS011;17114;52.314;8.910;2022-12-07T17:12:20;11.18;;;4.30;;